Waldron Lake, Indiana
Current Conditions -  °F | °C
As of 5:26 PM on Sunday 23 Nov 2014 (Local Time) from KGSH Reporting Station
Heavy Rain Heavy Rain  
Wind Chill: 51°   Ceiling: 700
Heat Index: 51°   Visibility: 2mi
Dew Point: 50°   Wind: 8mph
Humidity: 96%   Direction: 150°SSE
Pressure: 29.52"   Gusts: NA
Location:  41.4818°N, 85.481°W
Report Text: KGSH 232226Z AUTO 15007KT 2SM +RA BR BKN007 BKN012 OVC028 11/10 A2952 RMK AO2 P0013 T01060100
Loading
Personal Weather Stations






























Interactive Weather Map New forecast layout! Learn more

10-Day Weather Forecast

Advertisements
Track Severe Weather on mobile